sensor_id;sensor_type;location;lat;lon;timestamp;temperature;humidity
25360;DHT22;13311;51.386;0.016;2023-02-25T00:01:28;7.70;95.10
25360;DHT22;13311;51.386;0.016;2023-02-25T00:06:30;7.60;95.30
25360;DHT22;13311;51.386;0.016;2023-02-25T00:11:31;7.60;95.40
25360;DHT22;13311;51.386;0.016;2023-02-25T00:16:32;7.60;95.60
25360;DHT22;13311;51.386;0.016;2023-02-25T00:21:33;7.60;95.50
25360;DHT22;13311;51.386;0.016;2023-02-25T00:26:33;7.50;95.50
25360;DHT22;13311;51.386;0.016;2023-02-25T00:31:34;7.50;95.60
25360;DHT22;13311;51.386;0.016;2023-02-25T00:36:35;7.50;95.80
25360;DHT22;13311;51.386;0.016;2023-02-25T00:41:35;7.60;95.50
25360;DHT22;13311;51.386;0.016;2023-02-25T00:46:36;7.60;95.30
25360;DHT22;13311;51.386;0.016;2023-02-25T00:51:38;7.60;95.40
25360;DHT22;13311;51.386;0.016;2023-02-25T00:56:39;7.40;95.50
25360;DHT22;13311;51.386;0.016;2023-02-25T01:01:40;7.40;95.50
25360;DHT22;13311;51.386;0.016;2023-02-25T01:06:41;7.30;95.70
25360;DHT22;13311;51.386;0.016;2023-02-25T01:11:44;7.40;95.90
25360;DHT22;13311;51.386;0.016;2023-02-25T01:16:47;7.50;95.70
25360;DHT22;13311;51.386;0.016;2023-02-25T01:21:52;7.50;95.60
25360;DHT22;13311;51.386;0.016;2023-02-25T01:26:56;7.50;95.90
25360;DHT22;13311;51.386;0.016;2023-02-25T01:32:00;7.50;95.70
25360;DHT22;13311;51.386;0.016;2023-02-25T01:37:03;7.60;95.80
25360;DHT22;13311;51.386;0.016;2023-02-25T01:42:12;7.50;95.40
25360;DHT22;13311;51.386;0.016;2023-02-25T01:47:21;7.50;95.40
25360;DHT22;13311;51.386;0.016;2023-02-25T01:52:24;7.50;95.70
25360;DHT22;13311;51.386;0.016;2023-02-25T01:57:25;7.60;95.50
25360;DHT22;13311;51.386;0.016;2023-02-25T02:02:27;7.50;95.60
25360;DHT22;13311;51.386;0.016;2023-02-25T02:07:28;7.30;95.70
25360;DHT22;13311;51.386;0.016;2023-02-25T02:12:38;7.30;95.90
25360;DHT22;13311;51.386;0.016;2023-02-25T02:17:47;7.20;96.30
25360;DHT22;13311;51.386;0.016;2023-02-25T02:34:15;7.70;95.80
25360;DHT22;13311;51.386;0.016;2023-02-25T02:50:51;7.40;95.60
25360;DHT22;13311;51.386;0.016;2023-02-25T02:55:58;7.40;95.80
25360;DHT22;13311;51.386;0.016;2023-02-25T03:01:08;7.40;95.50
25360;DHT22;13311;51.386;0.016;2023-02-25T03:06:23;7.30;95.70
25360;DHT22;13311;51.386;0.016;2023-02-25T03:11:27;7.40;95.80
25360;DHT22;13311;51.386;0.016;2023-02-25T03:16:50;7.40;95.60
25360;DHT22;13311;51.386;0.016;2023-02-25T03:21:59;7.40;95.50
25360;DHT22;13311;51.386;0.016;2023-02-25T03:27:28;7.30;95.40
25360;DHT22;13311;51.386;0.016;2023-02-25T03:32:34;7.20;95.70
25360;DHT22;13311;51.386;0.016;2023-02-25T03:37:38;7.20;95.70
25360;DHT22;13311;51.386;0.016;2023-02-25T03:42:45;7.30;95.60
25360;DHT22;13311;51.386;0.016;2023-02-25T03:47:58;7.20;95.50
25360;DHT22;13311;51.386;0.016;2023-02-25T03:52:59;7.10;95.60
25360;DHT22;13311;51.386;0.016;2023-02-25T03:58:00;7.10;95.50
25360;DHT22;13311;51.386;0.016;2023-02-25T04:03:01;7.30;95.30
25360;DHT22;13311;51.386;0.016;2023-02-25T04:08:01;7.30;95.20
25360;DHT22;13311;51.386;0.016;2023-02-25T04:13:02;7.20;95.30
25360;DHT22;13311;51.386;0.016;2023-02-25T04:18:05;7.20;95.40
25360;DHT22;13311;51.386;0.016;2023-02-25T04:23:06;7.10;95.40
25360;DHT22;13311;51.386;0.016;2023-02-25T04:28:07;7.10;95.30
25360;DHT22;13311;51.386;0.016;2023-02-25T04:33:10;7.20;95.40
25360;DHT22;13311;51.386;0.016;2023-02-25T04:38:11;7.10;95.40
25360;DHT22;13311;51.386;0.016;2023-02-25T04:43:11;7.20;96.20
25360;DHT22;13311;51.386;0.016;2023-02-25T04:48:12;7.30;95.30
25360;DHT22;13311;51.386;0.016;2023-02-25T04:53:13;7.20;95.20
25360;DHT22;13311;51.386;0.016;2023-02-25T04:58:13;7.20;95.30
25360;DHT22;13311;51.386;0.016;2023-02-25T05:03:14;7.40;95.30
25360;DHT22;13311;51.386;0.016;2023-02-25T05:08:15;7.40;95.20
25360;DHT22;13311;51.386;0.016;2023-02-25T05:13:16;7.30;95.20
25360;DHT22;13311;51.386;0.016;2023-02-25T05:18:17;7.20;95.40
25360;DHT22;13311;51.386;0.016;2023-02-25T05:23:18;7.20;95.50
25360;DHT22;13311;51.386;0.016;2023-02-25T05:28:19;7.30;95.40
25360;DHT22;13311;51.386;0.016;2023-02-25T05:33:20;7.30;95.50
25360;DHT22;13311;51.386;0.016;2023-02-25T05:38:21;7.20;95.50
25360;DHT22;13311;51.386;0.016;2023-02-25T05:43:21;7.20;95.80
25360;DHT22;13311;51.386;0.016;2023-02-25T05:48:23;7.30;95.90
25360;DHT22;13311;51.386;0.016;2023-02-25T05:53:23;7.40;95.50
25360;DHT22;13311;51.386;0.016;2023-02-25T05:58:24;7.20;95.70
25360;DHT22;13311;51.386;0.016;2023-02-25T06:03:25;7.10;95.80
25360;DHT22;13311;51.386;0.016;2023-02-25T06:08:26;7.20;95.70
25360;DHT22;13311;51.386;0.016;2023-02-25T06:13:27;7.30;95.50
25360;DHT22;13311;51.386;0.016;2023-02-25T06:18:28;7.20;95.50
25360;DHT22;13311;51.386;0.016;2023-02-25T06:23:29;7.20;95.50
25360;DHT22;13311;51.386;0.016;2023-02-25T06:28:30;7.30;95.60
25360;DHT22;13311;51.386;0.016;2023-02-25T06:33:31;7.10;95.70
25360;DHT22;13311;51.386;0.016;2023-02-25T06:38:33;7.20;95.50
25360;DHT22;13311;51.386;0.016;2023-02-25T06:43:35;7.10;95.90
25360;DHT22;13311;51.386;0.016;2023-02-25T06:48:36;7.00;96.00
25360;DHT22;13311;51.386;0.016;2023-02-25T06:53:41;6.90;96.00
25360;DHT22;13311;51.386;0.016;2023-02-25T06:58:43;6.90;96.00
25360;DHT22;13311;51.386;0.016;2023-02-25T07:03:44;6.80;96.20
25360;DHT22;13311;51.386;0.016;2023-02-25T07:08:45;6.90;96.20
25360;DHT22;13311;51.386;0.016;2023-02-25T07:13:47;7.10;95.80
25360;DHT22;13311;51.386;0.016;2023-02-25T07:18:48;6.90;96.10
25360;DHT22;13311;51.386;0.016;2023-02-25T07:23:50;7.00;95.90
25360;DHT22;13311;51.386;0.016;2023-02-25T07:28:51;7.20;95.80
25360;DHT22;13311;51.386;0.016;2023-02-25T07:33:55;7.30;95.70
25360;DHT22;13311;51.386;0.016;2023-02-25T07:39:00;7.30;95.60
25360;DHT22;13311;51.386;0.016;2023-02-25T07:44:02;7.20;95.50
25360;DHT22;13311;51.386;0.016;2023-02-25T07:49:04;7.10;95.80
25360;DHT22;13311;51.386;0.016;2023-02-25T07:54:04;7.20;95.80
25360;DHT22;13311;51.386;0.016;2023-02-25T07:59:05;7.10;95.70
25360;DHT22;13311;51.386;0.016;2023-02-25T08:04:06;7.30;95.70
25360;DHT22;13311;51.386;0.016;2023-02-25T08:09:09;7.40;95.30
25360;DHT22;13311;51.386;0.016;2023-02-25T08:14:11;7.40;95.40
25360;DHT22;13311;51.386;0.016;2023-02-25T08:19:12;7.40;95.10
25360;DHT22;13311;51.386;0.016;2023-02-25T08:24:13;7.50;95.20
25360;DHT22;13311;51.386;0.016;2023-02-25T08:29:14;7.60;94.90
25360;DHT22;13311;51.386;0.016;2023-02-25T08:34:15;7.70;94.80
25360;DHT22;13311;51.386;0.016;2023-02-25T08:39:15;7.70;94.50
25360;DHT22;13311;51.386;0.016;2023-02-25T08:44:17;7.70;94.80
25360;DHT22;13311;51.386;0.016;2023-02-25T08:49:19;7.90;94.60
25360;DHT22;13311;51.386;0.016;2023-02-25T08:54:21;8.10;94.50
25360;DHT22;13311;51.386;0.016;2023-02-25T08:59:22;8.30;94.40
25360;DHT22;13311;51.386;0.016;2023-02-25T09:04:23;8.30;93.90
25360;DHT22;13311;51.386;0.016;2023-02-25T09:09:24;8.20;94.20
25360;DHT22;13311;51.386;0.016;2023-02-25T09:14:25;8.30;93.90
25360;DHT22;13311;51.386;0.016;2023-02-25T09:19:25;8.40;93.90
25360;DHT22;13311;51.386;0.016;2023-02-25T09:24:26;8.30;94.20
25360;DHT22;13311;51.386;0.016;2023-02-25T09:29:29;8.40;94.00
25360;DHT22;13311;51.386;0.016;2023-02-25T09:34:30;8.40;94.00
25360;DHT22;13311;51.386;0.016;2023-02-25T09:39:33;8.70;93.90
25360;DHT22;13311;51.386;0.016;2023-02-25T09:44:42;8.90;93.60
25360;DHT22;13311;51.386;0.016;2023-02-25T09:49:55;9.00;93.60
25360;DHT22;13311;51.386;0.016;2023-02-25T10:00:16;9.20;93.00
25360;DHT22;13311;51.386;0.016;2023-02-25T10:05:30;9.50;93.00
25360;DHT22;13311;51.386;0.016;2023-02-25T10:11:02;9.80;92.60
25360;DHT22;13311;51.386;0.016;2023-02-25T10:16:12;10.00;91.50
25360;DHT22;13311;51.386;0.016;2023-02-25T10:27:21;10.20;91.10
25360;DHT22;13311;51.386;0.016;2023-02-25T10:32:31;10.00;90.30
25360;DHT22;13311;51.386;0.016;2023-02-25T10:37:35;9.80;91.00
25360;DHT22;13311;51.386;0.016;2023-02-25T10:42:44;9.90;91.90
25360;DHT22;13311;51.386;0.016;2023-02-25T10:47:50;9.90;90.90
25360;DHT22;13311;51.386;0.016;2023-02-25T10:52:59;9.80;90.60
25360;DHT22;13311;51.386;0.016;2023-02-25T10:58:02;9.90;91.10
25360;DHT22;13311;51.386;0.016;2023-02-25T11:03:04;10.20;91.20
25360;DHT22;13311;51.386;0.016;2023-02-25T11:08:23;10.20;90.50
25360;DHT22;13311;51.386;0.016;2023-02-25T11:13:29;10.10;89.60
25360;DHT22;13311;51.386;0.016;2023-02-25T11:18:31;10.10;90.20
25360;DHT22;13311;51.386;0.016;2023-02-25T11:23:44;10.40;89.60
25360;DHT22;13311;51.386;0.016;2023-02-25T11:28:47;10.70;89.60
25360;DHT22;13311;51.386;0.016;2023-02-25T11:33:57;10.90;88.10
25360;DHT22;13311;51.386;0.016;2023-02-25T11:39:13;11.20;89.00
25360;DHT22;13311;51.386;0.016;2023-02-25T11:44:40;11.10;83.40
25360;DHT22;13311;51.386;0.016;2023-02-25T12:11:58;11.20;81.30
25360;DHT22;13311;51.386;0.016;2023-02-25T12:28:42;10.70;83.40
25360;DHT22;13311;51.386;0.016;2023-02-25T12:55:13;8.70;93.40
25360;DHT22;13311;51.386;0.016;2023-02-25T13:11:26;8.80;92.50
25360;DHT22;13311;51.386;0.016;2023-02-25T13:16:39;9.00;92.40
25360;DHT22;13311;51.386;0.016;2023-02-25T13:27:34;9.00;92.70
25360;DHT22;13311;51.386;0.016;2023-02-25T13:43:50;9.40;91.10
25360;DHT22;13311;51.386;0.016;2023-02-25T14:11:48;10.10;90.00
25360;DHT22;13311;51.386;0.016;2023-02-25T14:18:07;10.30;89.30
25360;DHT22;13311;51.386;0.016;2023-02-25T14:40:38;10.40;83.80
25360;DHT22;13311;51.386;0.016;2023-02-25T14:51:34;10.30;83.40
25360;DHT22;13311;51.386;0.016;2023-02-25T15:02:31;10.50;84.20
25360;DHT22;13311;51.386;0.016;2023-02-25T15:24:39;10.30;84.40
25360;DHT22;13311;51.386;0.016;2023-02-25T15:35:02;10.00;83.50
25360;DHT22;13311;51.386;0.016;2023-02-25T15:55:49;9.90;82.40
25360;DHT22;13311;51.386;0.016;2023-02-25T16:11:47;9.60;83.00
25360;DHT22;13311;51.386;0.016;2023-02-25T16:17:13;9.40;83.90
25360;DHT22;13311;51.386;0.016;2023-02-25T16:22:28;9.60;84.30
25360;DHT22;13311;51.386;0.016;2023-02-25T16:27:49;9.50;84.50
25360;DHT22;13311;51.386;0.016;2023-02-25T16:33:22;9.50;85.50
25360;DHT22;13311;51.386;0.016;2023-02-25T16:38:52;9.40;86.90
25360;DHT22;13311;51.386;0.016;2023-02-25T16:43:59;9.50;88.00
25360;DHT22;13311;51.386;0.016;2023-02-25T16:49:02;9.40;88.10
25360;DHT22;13311;51.386;0.016;2023-02-25T16:54:21;9.30;88.70
25360;DHT22;13311;51.386;0.016;2023-02-25T16:59:31;9.40;89.10
25360;DHT22;13311;51.386;0.016;2023-02-25T17:04:36;9.40;89.30
25360;DHT22;13311;51.386;0.016;2023-02-25T17:09:45;9.40;88.20
25360;DHT22;13311;51.386;0.016;2023-02-25T17:14:49;9.30;88.10
25360;DHT22;13311;51.386;0.016;2023-02-25T17:19:50;9.30;87.80
25360;DHT22;13311;51.386;0.016;2023-02-25T17:24:52;9.20;87.20
25360;DHT22;13311;51.386;0.016;2023-02-25T17:29:55;9.20;87.40
25360;DHT22;13311;51.386;0.016;2023-02-25T17:35:00;9.20;87.00
25360;DHT22;13311;51.386;0.016;2023-02-25T17:40:04;9.00;87.10
25360;DHT22;13311;51.386;0.016;2023-02-25T17:45:40;9.00;87.90
25360;DHT22;13311;51.386;0.016;2023-02-25T17:50:43;8.80;88.80
25360;DHT22;13311;51.386;0.016;2023-02-25T17:55:53;8.90;87.80
25360;DHT22;13311;51.386;0.016;2023-02-25T18:01:00;8.60;85.90
25360;DHT22;13311;51.386;0.016;2023-02-25T18:06:26;8.60;86.30
25360;DHT22;13311;51.386;0.016;2023-02-25T18:11:53;8.60;85.90
25360;DHT22;13311;51.386;0.016;2023-02-25T18:16:58;8.60;86.00
25360;DHT22;13311;51.386;0.016;2023-02-25T18:21:59;8.50;87.10
25360;DHT22;13311;51.386;0.016;2023-02-25T18:32:03;8.40;89.00
25360;DHT22;13311;51.386;0.016;2023-02-25T18:37:04;8.40;89.30
25360;DHT22;13311;51.386;0.016;2023-02-25T18:42:05;8.30;89.40
25360;DHT22;13311;51.386;0.016;2023-02-25T18:47:05;8.20;90.00
25360;DHT22;13311;51.386;0.016;2023-02-25T18:52:16;8.00;89.90
25360;DHT22;13311;51.386;0.016;2023-02-25T18:57:23;7.90;90.20
25360;DHT22;13311;51.386;0.016;2023-02-25T19:02:28;8.00;90.10
25360;DHT22;13311;51.386;0.016;2023-02-25T19:07:33;8.00;90.30
25360;DHT22;13311;51.386;0.016;2023-02-25T19:12:34;7.90;90.40
25360;DHT22;13311;51.386;0.016;2023-02-25T19:17:35;7.80;90.70
25360;DHT22;13311;51.386;0.016;2023-02-25T19:22:43;7.70;91.00
25360;DHT22;13311;51.386;0.016;2023-02-25T19:27:45;7.60;91.30
25360;DHT22;13311;51.386;0.016;2023-02-25T19:32:46;7.50;91.50
25360;DHT22;13311;51.386;0.016;2023-02-25T19:37:47;7.50;91.70
25360;DHT22;13311;51.386;0.016;2023-02-25T19:42:48;7.50;91.80
25360;DHT22;13311;51.386;0.016;2023-02-25T19:47:50;7.50;91.90
25360;DHT22;13311;51.386;0.016;2023-02-25T19:52:52;7.50;91.90
25360;DHT22;13311;51.386;0.016;2023-02-25T19:57:54;7.50;92.00
25360;DHT22;13311;51.386;0.016;2023-02-25T20:02:55;7.50;92.10
25360;DHT22;13311;51.386;0.016;2023-02-25T20:07:56;7.40;92.40
25360;DHT22;13311;51.386;0.016;2023-02-25T20:12:57;7.40;92.80
25360;DHT22;13311;51.386;0.016;2023-02-25T20:17:57;7.30;92.80
25360;DHT22;13311;51.386;0.016;2023-02-25T20:22:58;7.20;92.90
25360;DHT22;13311;51.386;0.016;2023-02-25T20:27:59;7.20;93.10
25360;DHT22;13311;51.386;0.016;2023-02-25T20:32:59;7.20;93.30
25360;DHT22;13311;51.386;0.016;2023-02-25T20:38:21;7.20;93.40
25360;DHT22;13311;51.386;0.016;2023-02-25T20:43:27;7.10;93.60
25360;DHT22;13311;51.386;0.016;2023-02-25T20:48:30;7.00;93.60
25360;DHT22;13311;51.386;0.016;2023-02-25T20:53:31;7.00;93.80
25360;DHT22;13311;51.386;0.016;2023-02-25T20:58:32;6.90;93.70
25360;DHT22;13311;51.386;0.016;2023-02-25T21:03:33;6.80;93.90
25360;DHT22;13311;51.386;0.016;2023-02-25T21:08:34;6.90;93.90
25360;DHT22;13311;51.386;0.016;2023-02-25T21:13:35;6.80;93.80
25360;DHT22;13311;51.386;0.016;2023-02-25T21:18:35;6.80;93.80
25360;DHT22;13311;51.386;0.016;2023-02-25T21:23:36;6.70;93.70
25360;DHT22;13311;51.386;0.016;2023-02-25T21:28:38;6.80;93.80
25360;DHT22;13311;51.386;0.016;2023-02-25T21:33:41;6.80;93.50
25360;DHT22;13311;51.386;0.016;2023-02-25T21:38:41;6.80;93.60
25360;DHT22;13311;51.386;0.016;2023-02-25T21:43:42;6.80;93.50
25360;DHT22;13311;51.386;0.016;2023-02-25T21:48:44;6.70;93.50
25360;DHT22;13311;51.386;0.016;2023-02-25T21:53:46;6.80;93.50
25360;DHT22;13311;51.386;0.016;2023-02-25T21:58:47;6.70;93.50
25360;DHT22;13311;51.386;0.016;2023-02-25T22:03:51;6.70;93.70
25360;DHT22;13311;51.386;0.016;2023-02-25T22:08:52;6.50;94.00
25360;DHT22;13311;51.386;0.016;2023-02-25T22:13:53;6.60;94.10
25360;DHT22;13311;51.386;0.016;2023-02-25T22:18:54;6.50;94.30
25360;DHT22;13311;51.386;0.016;2023-02-25T22:23:57;6.50;94.60
25360;DHT22;13311;51.386;0.016;2023-02-25T22:29:03;6.50;94.80
25360;DHT22;13311;51.386;0.016;2023-02-25T22:34:06;6.60;94.70
25360;DHT22;13311;51.386;0.016;2023-02-25T22:39:08;6.50;94.80
25360;DHT22;13311;51.386;0.016;2023-02-25T22:44:09;6.40;95.10
25360;DHT22;13311;51.386;0.016;2023-02-25T22:49:10;6.40;95.40
25360;DHT22;13311;51.386;0.016;2023-02-25T22:54:13;6.40;95.50
25360;DHT22;13311;51.386;0.016;2023-02-25T22:59:16;6.40;95.40
25360;DHT22;13311;51.386;0.016;2023-02-25T23:04:17;6.50;95.40
25360;DHT22;13311;51.386;0.016;2023-02-25T23:09:18;6.40;95.50
25360;DHT22;13311;51.386;0.016;2023-02-25T23:14:19;6.40;95.40
25360;DHT22;13311;51.386;0.016;2023-02-25T23:19:20;6.30;95.60
25360;DHT22;13311;51.386;0.016;2023-02-25T23:24:20;6.30;95.50
25360;DHT22;13311;51.386;0.016;2023-02-25T23:29:22;6.40;95.50
25360;DHT22;13311;51.386;0.016;2023-02-25T23:34:22;6.30;95.70
25360;DHT22;13311;51.386;0.016;2023-02-25T23:39:24;6.20;95.90
25360;DHT22;13311;51.386;0.016;2023-02-25T23:44:25;6.20;96.00
25360;DHT22;13311;51.386;0.016;2023-02-25T23:49:26;6.20;96.10
25360;DHT22;13311;51.386;0.016;2023-02-25T23:54:27;6.10;96.10
25360;DHT22;13311;51.386;0.016;2023-02-25T23:59:28;6.20;96.20
